Terminal Aerodrome Forecast
Issued by NWS Bismarck, ND

Home | Current Version | Previous Version | Text Only | Print | Product List | Glossary Off
Versions: 1 2 3 4 5 6 7 8 9 10 11 12 13 14 15 16 17 18 19 20 21

000
FTUS43 KBIS 212300
TAFISN
TAF
KISN 212340Z 2200/2224 01009KT P6SM VCTS OVC060CB
     FM220600 36010KT P6SM -TSRA BKN035CB
     FM220800 35007KT 6SM -SHRA BR VCTS OVC030CB
     FM221200 04008KT 1SM -SHRA BR VCTS OVC012CB
     FM221500 04008KT 4SM -SHRA BR VCTS OVC015CB=

USA.gov is the U.S. government's official web portal to all federal, state and local government web resources and services.